Time;durP1;ratioP1;P1;durP2;ratioP2;P2;SDS_P1;SDS_P2;PMS_P1;PMS_P2;Temp;Humidity;BMP_temperature;BMP_pressure;BME280_temperature;BME280_humidity;BME280_pressure;Samples;Min_cycle;Max_cycle;Signal;HPM_P1;HPM_P2
2023/10/24 00:01:17;;;;;;;10.00;5.43;;;;;;;15.87;78.79;100286.47;5032730;28;20038;-46
2023/10/24 00:03:43;;;;;;;9.30;5.07;;;;;;;15.74;79.72;100284.94;5032435;28;20182;-43
2023/10/24 00:06:08;;;;;;;8.10;5.35;;;;;;;15.78;79.25;100276.13;5032590;28;20474;-43
2023/10/24 00:08:33;;;;;;;8.02;5.03;;;;;;;15.71;79.55;100267.47;5032671;28;20037;-43
2023/10/24 00:11:06;;;;;;;7.72;5.03;;;;;;;15.84;79.19;100265.50;5031175;28;20037;-49
2023/10/24 00:13:32;;;;;;;9.70;5.25;;;;;;;15.91;78.82;100253.13;5031682;28;20087;-44
2023/10/24 00:15:58;;;;;;;8.10;5.28;;;;;;;15.61;80.41;100262.41;5032084;28;20483;-46
2023/10/24 00:18:27;;;;;;;7.80;5.20;;;;;;;15.57;80.43;100261.56;5031633;28;20041;-45
2023/10/24 00:20:52;;;;;;;8.75;5.50;;;;;;;15.91;79.32;100255.75;5032627;28;20041;-45
2023/10/24 00:23:18;;;;;;;8.70;5.28;;;;;;;15.88;79.42;100243.50;5031978;28;20083;-44
2023/10/24 00:25:43;;;;;;;7.93;5.43;;;;;;;15.79;80.33;100248.94;5031362;28;20502;-46
2023/10/24 00:28:09;;;;;;;7.22;4.90;;;;;;;15.80;79.79;100246.25;5029000;28;20507;-47
2023/10/24 00:30:35;;;;;;;7.28;5.28;;;;;;;15.95;79.14;100236.38;5031432;28;20117;-43
2023/10/24 00:33:00;;;;;;;6.38;4.88;;;;;;;16.05;78.86;100236.16;5031941;28;20057;-44
2023/10/24 00:35:26;;;;;;;7.55;5.45;;;;;;;16.00;79.38;100235.41;5029752;28;20037;-43
2023/10/24 00:37:51;;;;;;;8.18;5.28;;;;;;;15.78;79.65;100227.06;5031838;28;20377;-51
2023/10/24 00:40:18;;;;;;;7.07;5.07;;;;;;;15.83;79.86;100234.84;5030529;28;20499;-42
2023/10/24 00:42:44;;;;;;;8.80;5.80;;;;;;;15.81;79.96;100223.47;5031127;28;20049;-45
2023/10/24 00:45:10;;;;;;;8.38;5.47;;;;;;;15.96;79.28;100225.84;5031531;28;20064;-44
2023/10/24 00:47:35;;;;;;;7.72;5.50;;;;;;;15.92;79.81;100228.56;5031070;28;20075;-45
2023/10/24 00:50:02;;;;;;;8.82;5.88;;;;;;;15.77;80.07;100227.06;5031430;28;20036;-45
2023/10/24 00:52:27;;;;;;;8.30;5.80;;;;;;;16.02;79.37;100224.84;5030942;28;20041;-44
2023/10/24 00:54:53;;;;;;;9.02;5.97;;;;;;;15.97;79.72;100218.81;5031310;28;20377;-43
2023/10/24 00:57:18;;;;;;;8.52;5.93;;;;;;;16.10;78.94;100218.53;5031273;28;20045;-43
2023/10/24 00:59:44;;;;;;;8.75;6.38;;;;;;;16.00;79.58;100211.72;5030779;28;20044;-45
2023/10/24 01:02:10;;;;;;;8.43;6.05;;;;;;;16.11;78.93;100216.78;5031144;28;20076;-44
2023/10/24 01:04:36;;;;;;;10.75;6.30;;;;;;;16.12;79.02;100222.00;5030626;28;20384;-44
2023/10/24 01:07:01;;;;;;;10.13;6.30;;;;;;;16.17;78.85;100214.03;5030015;28;20040;-42
2023/10/24 01:09:27;;;;;;;9.90;6.47;;;;;;;16.11;79.09;100219.41;5030660;28;20034;-47
2023/10/24 01:11:57;;;;;;;9.50;6.07;;;;;;;16.04;79.13;100215.19;5030760;28;20037;-45
2023/10/24 01:14:22;;;;;;;9.77;6.68;;;;;;;16.18;78.99;100213.13;5030511;28;20045;-44
2023/10/24 01:16:47;;;;;;;11.00;6.50;;;;;;;16.20;78.69;100216.59;5031327;28;20470;-44
2023/10/24 01:19:13;;;;;;;12.18;7.15;;;;;;;16.07;79.21;100215.97;5031104;28;20076;-44
2023/10/24 01:21:46;;;;;;;11.27;6.90;;;;;;;16.13;79.21;100209.72;5030392;28;20047;-44
2023/10/24 01:24:16;;;;;;;12.13;7.13;;;;;;;16.18;79.13;100210.50;5031175;28;20038;-44
2023/10/24 01:26:42;;;;;;;11.68;7.13;;;;;;;16.10;79.38;100212.44;5030756;28;20134;-42
2023/10/24 01:29:10;;;;;;;11.50;7.45;;;;;;;16.18;79.20;100211.38;5031034;28;20460;-45
2023/10/24 01:31:36;;;;;;;14.20;7.63;;;;;;;16.10;78.87;100212.44;5030596;28;20129;-46
2023/10/24 01:34:02;;;;;;;16.88;7.95;;;;;;;15.94;79.41;100211.84;5031329;28;20056;-45
2023/10/24 01:36:27;;;;;;;12.15;8.00;;;;;;;16.10;78.94;100207.19;5030726;28;20412;-43
2023/10/24 01:38:53;;;;;;;14.65;7.95;;;;;;;15.99;79.39;100212.63;5031179;28;20045;-43
2023/10/24 01:41:19;;;;;;;13.10;7.68;;;;;;;16.00;79.41;100203.84;5031266;28;20033;-44
2023/10/24 01:43:44;;;;;;;12.35;7.72;;;;;;;16.05;79.42;100212.50;5030044;28;20136;-46
2023/10/24 01:46:09;;;;;;;14.43;8.18;;;;;;;16.02;79.81;100207.31;5030522;28;20604;-43
2023/10/24 01:48:35;;;;;;;13.55;7.90;;;;;;;15.97;79.91;100208.31;5029933;28;20080;-43
2023/10/24 01:51:00;;;;;;;15.00;8.85;;;;;;;15.83;80.03;100204.16;5030384;28;20042;-43
2023/10/24 01:53:26;;;;;;;16.25;8.95;;;;;;;15.91;80.29;100204.03;5029947;28;20029;-45
2023/10/24 01:55:51;;;;;;;14.75;8.15;;;;;;;16.00;79.87;100197.72;5031214;28;20518;-44
2023/10/24 01:58:16;;;;;;;15.02;8.65;;;;;;;15.85;80.60;100203.28;5037125;28;20038;-43
2023/10/24 02:00:42;;;;;;;16.25;8.55;;;;;;;16.04;79.50;100197.63;5038359;28;20053;-45
2023/10/24 02:03:07;;;;;;;16.83;8.85;;;;;;;16.04;79.68;100200.25;5033446;28;20084;-48
2023/10/24 02:05:32;;;;;;;19.05;8.80;;;;;;;16.07;79.53;100199.34;5032539;28;20512;-49
2023/10/24 02:07:58;;;;;;;14.65;8.60;;;;;;;16.00;79.60;100195.97;5030267;28;20489;-45
2023/10/24 02:10:23;;;;;;;15.90;8.77;;;;;;;15.79;80.26;100194.63;5028037;28;20610;-45
2023/10/24 02:12:48;;;;;;;16.48;8.63;;;;;;;15.97;80.03;100193.41;5029518;28;20037;-44
2023/10/24 02:15:14;;;;;;;17.70;9.00;;;;;;;15.98;79.69;100187.22;5029512;28;20438;-46
2023/10/24 02:17:41;;;;;;;16.92;8.75;;;;;;;16.12;79.26;100194.84;5028238;28;20045;-45
2023/10/24 02:20:10;;;;;;;16.08;8.70;;;;;;;16.07;79.54;100196.72;5029807;28;20042;-43
2023/10/24 02:22:35;;;;;;;17.00;8.55;;;;;;;15.99;79.57;100188.09;5029361;28;20496;-43
2023/10/24 02:25:01;;;;;;;21.10;9.60;;;;;;;16.06;79.44;100182.69;5030045;28;20074;-46
2023/10/24 02:27:27;;;;;;;17.58;9.15;;;;;;;16.01;79.54;100184.56;5029692;28;20659;-44
2023/10/24 02:29:52;;;;;;;17.92;9.02;;;;;;;15.95;79.54;100184.66;5029912;28;20094;-44
2023/10/24 02:32:17;;;;;;;20.90;9.40;;;;;;;15.92;79.85;100183.88;5029819;28;20120;-44
2023/10/24 02:34:47;;;;;;;19.33;9.40;;;;;;;16.03;79.33;100188.03;5029225;28;20519;-45
2023/10/24 02:37:12;;;;;;;18.88;9.48;;;;;;;15.98;79.18;100183.75;5029946;28;20046;-43
2023/10/24 02:39:37;;;;;;;19.73;9.80;;;;;;;15.99;79.17;100175.81;5029283;28;20091;-46
2023/10/24 02:42:03;;;;;;;19.00;9.88;;;;;;;15.90;79.43;100180.41;5029665;28;20495;-44
2023/10/24 02:44:28;;;;;;;17.40;9.05;;;;;;;15.80;79.84;100177.06;5028851;28;20151;-44
2023/10/24 02:46:53;;;;;;;18.42;9.05;;;;;;;15.80;79.91;100177.94;5029592;28;20038;-44
2023/10/24 02:49:19;;;;;;;19.63;9.75;;;;;;;15.82;79.79;100178.78;5029363;28;20060;-45
2023/10/24 02:51:44;;;;;;;18.52;9.07;;;;;;;15.90;79.62;100183.03;5028803;28;20485;-44
2023/10/24 02:54:09;;;;;;;19.65;9.95;;;;;;;15.80;79.79;100177.06;5029549;28;20049;-45
2023/10/24 02:56:35;;;;;;;20.20;10.23;;;;;;;15.75;80.09;100184.16;5029131;28;20119;-43
2023/10/24 02:59:01;;;;;;;18.88;10.05;;;;;;;15.87;79.54;100190.97;5029370;28;20123;-43
2023/10/24 03:01:27;;;;;;;20.73;9.95;;;;;;;15.91;79.43;100182.13;5028909;28;20496;-43
2023/10/24 03:03:53;;;;;;;19.92;10.02;;;;;;;15.95;79.04;100178.53;5033002;28;20171;-43
2023/10/24 03:06:18;;;;;;;19.48;10.23;;;;;;;15.93;79.12;100178.56;5033340;28;20126;-44
2023/10/24 03:08:44;;;;;;;17.30;10.00;;;;;;;15.97;79.20;100187.28;5032991;28;20488;-47
2023/10/24 03:11:10;;;;;;;19.73;10.13;;;;;;;15.93;79.37;100183.81;5033330;28;20045;-43
2023/10/24 03:13:36;;;;;;;20.23;10.43;;;;;;;15.73;79.75;100188.63;5032801;28;20037;-43
2023/10/24 03:16:05;;;;;;;22.73;10.38;;;;;;;15.96;79.23;100183.78;5033908;28;20033;-50
2023/10/24 03:18:33;;;;;;;20.60;10.43;;;;;;;15.91;79.34;100188.25;5031711;28;20091;-46
2023/10/24 03:21:02;;;;;;;18.98;10.30;;;;;;;15.75;79.57;100190.28;5031966;28;20077;-42
2023/10/24 03:23:28;;;;;;;21.17;10.05;;;;;;;15.70;79.89;100191.28;5032350;28;20542;-43
2023/10/24 03:25:53;;;;;;;21.77;10.43;;;;;;;15.75;79.97;100197.31;5032490;28;20029;-44
2023/10/24 03:28:19;;;;;;;22.48;10.50;;;;;;;15.85;79.47;100198.03;5033147;28;20057;-44
2023/10/24 03:30:44;;;;;;;20.50;10.48;;;;;;;15.78;79.64;100192.03;5032625;28;20033;-44
2023/10/24 03:33:10;;;;;;;22.70;10.20;;;;;;;15.88;79.20;100187.44;5032572;28;20057;-45
2023/10/24 03:35:36;;;;;;;22.73;10.68;;;;;;;15.82;79.34;100194.56;5032508;28;20107;-46
2023/10/24 03:38:02;;;;;;;19.60;10.30;;;;;;;15.85;79.34;100191.00;5032751;28;20064;-47
2023/10/24 03:40:28;;;;;;;21.00;10.50;;;;;;;15.75;79.29;100194.69;5032081;28;20034;-46
2023/10/24 03:42:53;;;;;;;22.50;10.10;;;;;;;15.86;79.29;100200.59;5032641;28;20052;-46
2023/10/24 03:45:19;;;;;;;21.48;10.60;;;;;;;15.75;79.61;100194.69;5032607;28;20144;-44
2023/10/24 03:47:45;;;;;;;20.17;10.23;;;;;;;15.85;79.21;100191.00;5032556;28;20053;-45
2023/10/24 03:50:10;;;;;;;20.77;10.32;;;;;;;15.80;79.14;100190.19;5032801;28;20041;-48
2023/10/24 03:52:35;;;;;;;22.52;10.70;;;;;;;15.87;79.08;100191.81;5030258;28;20128;-48
2023/10/24 03:55:00;;;;;;;20.73;10.60;;;;;;;15.89;79.17;100194.44;5032761;28;20120;-46
2023/10/24 03:57:26;;;;;;;22.80;10.98;;;;;;;15.83;79.20;100193.66;5032340;28;20044;-44
2023/10/24 03:59:51;;;;;;;21.23;10.88;;;;;;;15.74;79.56;100200.84;5030865;28;20054;-44
2023/10/24 04:02:17;;;;;;;21.17;10.60;;;;;;;15.67;79.68;100197.47;5032487;28;20073;-49
2023/10/24 04:04:42;;;;;;;22.75;11.20;;;;;;;15.68;79.73;100199.19;5031788;28;20087;-43
2023/10/24 04:07:07;;;;;;;22.35;11.00;;;;;;;15.74;79.54;100198.19;5032444;28;20037;-44
2023/10/24 04:09:33;;;;;;;23.45;11.35;;;;;;;15.85;78.78;100203.28;5031963;28;20514;-49
2023/10/24 04:11:58;;;;;;;23.23;11.20;;;;;;;15.51;80.26;100209.09;5031878;28;20056;-47
2023/10/24 04:14:23;;;;;;;22.83;10.90;;;;;;;15.60;79.95;100198.47;5030534;28;20030;-44
2023/10/24 04:16:50;;;;;;;23.25;11.10;;;;;;;15.77;79.21;100204.28;5032501;28;20048;-44
2023/10/24 04:19:16;;;;;;;22.92;11.02;;;;;;;15.78;79.08;100203.41;5032595;28;20446;-44
2023/10/24 04:21:41;;;;;;;22.40;11.25;;;;;;;15.69;79.38;100197.44;5032182;28;20041;-51
2023/10/24 04:24:07;;;;;;;23.33;11.50;;;;;;;15.49;80.48;100207.41;5032704;28;20073;-42
2023/10/24 04:26:34;;;;;;;24.58;11.23;;;;;;;15.48;80.16;100195.16;5031619;28;20096;-43
2023/10/24 04:28:59;;;;;;;19.98;10.60;;;;;;;15.69;79.49;100184.28;5032391;28;20037;-45
2023/10/24 04:31:24;;;;;;;20.88;10.80;;;;;;;15.72;79.46;100181.63;5031826;28;20099;-43
2023/10/24 04:33:50;;;;;;;20.60;10.45;;;;;;;15.68;78.82;100169.41;5031999;28;20041;-46
2023/10/24 04:36:16;;;;;;;21.73;10.35;;;;;;;15.68;79.32;100177.28;5032509;28;20067;-46
2023/10/24 04:38:41;;;;;;;20.17;10.13;;;;;;;15.66;78.66;100179.97;5031666;28;20053;-42
2023/10/24 04:41:06;;;;;;;18.23;10.23;;;;;;;15.59;79.16;100177.47;5032303;28;20045;-43
2023/10/24 04:43:32;;;;;;;20.58;10.25;;;;;;;15.44;80.11;100168.06;5031714;28;20040;-43
2023/10/24 04:45:57;;;;;;;19.60;9.98;;;;;;;15.57;79.27;100166.13;5032394;28;20430;-43
2023/10/24 04:48:22;;;;;;;19.00;10.27;;;;;;;15.34;80.06;100167.38;5034601;28;20042;-49
2023/10/24 04:50:48;;;;;;;19.35;10.20;;;;;;;15.43;79.77;100163.69;5032995;28;20059;-44
2023/10/24 04:53:14;;;;;;;17.00;9.80;;;;;;;15.54;79.41;100167.06;5031730;28;20430;-44
2023/10/24 04:55:40;;;;;;;17.10;9.85;;;;;;;15.51;79.57;100166.19;5030772;28;20057;-45
2023/10/24 04:58:06;;;;;;;19.67;10.68;;;;;;;15.25;80.25;100164.88;5031496;28;20056;-47
2023/10/24 05:00:32;;;;;;;21.02;10.52;;;;;;;15.28;80.08;100151.72;5030510;28;20149;-43
2023/10/24 05:02:57;;;;;;;18.90;10.05;;;;;;;15.34;80.62;100154.25;5030999;28;20104;-46
2023/10/24 05:05:22;;;;;;;20.17;10.25;;;;;;;15.44;79.88;100157.56;5030645;28;20061;-48
2023/10/24 05:07:48;;;;;;;21.20;11.25;;;;;;;15.41;79.72;100160.25;5031003;28;20439;-48
2023/10/24 05:10:14;;;;;;;21.42;11.90;;;;;;;15.18;80.64;100158.03;5030844;28;20492;-44
2023/10/24 05:12:39;;;;;;;20.77;11.20;;;;;;;15.39;79.89;100152.38;5030373;28;20052;-48
2023/10/24 05:15:05;;;;;;;19.80;10.77;;;;;;;15.51;79.53;100153.06;5030754;28;20120;-43
2023/10/24 05:17:30;;;;;;;22.27;11.50;;;;;;;15.56;79.28;100156.50;5030339;28;20037;-45
2023/10/24 05:19:59;;;;;;;20.67;11.35;;;;;;;15.59;79.23;100151.19;5030816;28;20570;-47
2023/10/24 05:22:25;;;;;;;21.52;11.27;;;;;;;15.46;79.35;100149.66;5030044;28;20040;-49
2023/10/24 05:24:50;;;;;;;23.55;11.70;;;;;;;15.47;79.68;100147.00;5030082;28;20372;-46
2023/10/24 05:27:15;;;;;;;22.35;11.23;;;;;;;15.64;78.89;100150.22;5030715;28;20029;-48
2023/10/24 05:29:42;;;;;;;22.85;11.90;;;;;;;15.19;80.54;100149.22;5029937;28;20041;-45
2023/10/24 05:32:07;;;;;;;22.70;11.23;;;;;;;15.55;79.05;100141.66;5030380;28;20410;-46
2023/10/24 05:34:33;;;;;;;22.48;11.35;;;;;;;15.40;79.33;100135.75;5030061;28;20038;-46
2023/10/24 05:36:58;;;;;;;22.67;11.23;;;;;;;15.39;79.70;100131.38;5030846;28;20132;-44
2023/10/24 05:39:26;;;;;;;23.95;11.60;;;;;;;15.15;80.64;100131.81;5029910;28;20120;-46
2023/10/24 05:41:52;;;;;;;23.88;11.55;;;;;;;15.55;79.07;100134.66;5030480;28;20494;-43
2023/10/24 05:44:17;;;;;;;21.45;11.02;;;;;;;15.57;78.86;100142.47;5030081;28;20034;-46
2023/10/24 05:46:43;;;;;;;21.98;11.60;;;;;;;15.53;78.96;100136.41;5030163;28;20033;-45
2023/10/24 05:49:08;;;;;;;21.80;11.45;;;;;;;15.43;79.40;100143.56;5030709;28;20313;-49
2023/10/24 05:51:33;;;;;;;23.98;12.45;;;;;;;14.91;80.81;100140.09;5029948;28;20053;-50
2023/10/24 05:53:59;;;;;;;23.38;11.90;;;;;;;15.40;79.85;100138.38;5030357;28;20112;-47
2023/10/24 05:56:25;;;;;;;24.58;12.13;;;;;;;15.40;79.70;100141.00;5029921;28;20030;-48
2023/10/24 05:58:51;;;;;;;25.67;13.15;;;;;;;15.43;79.83;100140.06;5030091;28;20040;-43
2023/10/24 06:01:16;;;;;;;24.50;12.98;;;;;;;15.44;79.38;100139.16;5029945;28;20512;-45
2023/10/24 06:03:42;;;;;;;23.65;12.95;;;;;;;15.50;79.03;100133.81;5029651;28;20080;-50
2023/10/24 06:06:08;;;;;;;28.42;13.85;;;;;;;15.39;79.74;100130.50;5029687;28;20081;-46
2023/10/24 06:08:34;;;;;;;23.95;12.98;;;;;;;15.21;80.22;100131.69;5029382;28;20053;-49
2023/10/24 06:11:06;;;;;;;25.65;12.93;;;;;;;15.40;80.05;100132.25;5030309;28;20068;-47
2023/10/24 06:13:32;;;;;;;26.10;13.27;;;;;;;15.69;78.58;100139.63;5029239;28;20037;-44
2023/10/24 06:16:11;;;;;;;24.00;12.60;;;;;;;15.67;78.65;100142.28;5029741;28;20044;-45
2023/10/24 06:18:36;;;;;;;24.27;12.63;;;;;;;15.71;78.26;100148.34;5029466;28;20380;-48
2023/10/24 06:21:06;;;;;;;21.98;12.30;;;;;;;15.63;78.96;100150.25;5029516;28;20124;-46
2023/10/24 06:23:33;;;;;;;22.42;12.30;;;;;;;15.69;78.66;100152.75;5028024;28;20518;-46
2023/10/24 06:25:58;;;;;;;22.00;11.75;;;;;;;15.85;78.11;100158.59;5029696;28;20033;-44
2023/10/24 06:28:24;;;;;;;27.55;11.98;;;;;;;15.71;78.65;100159.72;5029326;28;20040;-44
2023/10/24 06:30:56;;;;;;;22.92;11.93;;;;;;;15.77;77.99;100159.59;5030124;28;20622;-44
2023/10/24 06:33:21;;;;;;;22.60;12.23;;;;;;;15.58;79.19;100167.84;5029187;28;20083;-47
2023/10/24 06:35:46;;;;;;;22.90;11.93;;;;;;;15.73;78.89;100162.34;5029510;28;20037;-44
2023/10/24 06:38:12;;;;;;;21.98;12.07;;;;;;;15.78;78.04;100157.84;5028804;28;20045;-46
2023/10/24 06:40:37;;;;;;;22.08;11.13;;;;;;;15.75;78.32;100157.88;5029133;28;20180;-44
2023/10/24 06:43:05;;;;;;;22.15;10.98;;;;;;;15.76;78.14;100159.63;5029638;28;20049;-43
2023/10/24 06:45:31;;;;;;;20.33;11.00;;;;;;;15.90;77.99;100162.88;5029003;28;20140;-47
2023/10/24 06:47:57;;;;;;;20.90;11.02;;;;;;;15.78;78.16;100160.47;5029673;28;20591;-48
2023/10/24 06:50:22;;;;;;;22.33;11.65;;;;;;;15.83;78.01;100163.88;5029362;28;20152;-48
2023/10/24 06:52:47;;;;;;;22.20;11.93;;;;;;;15.51;78.91;100166.19;5029100;28;20049;-44
2023/10/24 06:55:13;;;;;;;23.20;11.88;;;;;;;15.56;79.44;100174.88;5029553;28;20051;-49
2023/10/24 06:57:38;;;;;;;21.30;11.73;;;;;;;15.46;79.26;100173.28;5029358;28;20033;-45
2023/10/24 07:00:06;;;;;;;20.65;11.57;;;;;;;15.61;79.06;100180.97;5029545;28;20389;-45
2023/10/24 07:02:33;;;;;;;20.45;11.35;;;;;;;15.61;78.97;100178.31;5028970;28;20137;-46
2023/10/24 07:04:59;;;;;;;19.10;11.05;;;;;;;15.73;78.23;100178.97;5029876;28;20408;-47
2023/10/24 07:07:25;;;;;;;21.05;10.98;;;;;;;15.51;78.58;100184.59;5029295;28;20156;-44
2023/10/24 07:09:51;;;;;;;22.00;11.60;;;;;;;15.52;79.17;100178.44;5029735;28;20516;-43
2023/10/24 07:12:16;;;;;;;20.08;11.35;;;;;;;15.46;78.95;100175.94;5029907;28;20036;-43
2023/10/24 07:14:41;;;;;;;24.17;11.50;;;;;;;15.55;78.81;100171.44;5029291;28;20396;-44
2023/10/24 07:17:07;;;;;;;21.23;11.02;;;;;;;15.60;78.47;100177.47;5030159;28;20136;-45
2023/10/24 07:19:32;;;;;;;22.75;11.30;;;;;;;15.60;78.33;100173.97;5027925;28;20137;-42
2023/10/24 07:21:57;;;;;;;21.15;11.45;;;;;;;15.56;78.91;100182.78;5030247;28;20037;-46
2023/10/24 07:24:23;;;;;;;19.95;11.10;;;;;;;15.68;78.38;100172.03;5030346;28;20052;-42
2023/10/24 07:26:48;;;;;;;21.42;11.32;;;;;;;15.64;78.38;100173.00;5032695;28;20518;-43
2023/10/24 07:29:13;;;;;;;20.67;11.30;;;;;;;15.64;78.16;100171.25;5031934;28;20116;-44
2023/10/24 07:31:39;;;;;;;21.27;10.70;;;;;;;15.74;78.22;100164.03;5031817;28;20063;-45
2023/10/24 07:34:04;;;;;;;21.80;11.10;;;;;;;15.71;78.01;100164.97;5031634;28;20340;-44
2023/10/24 07:36:31;;;;;;;20.98;11.60;;;;;;;15.79;77.98;100172.72;5031862;28;20106;-43
2023/10/24 07:39:00;;;;;;;25.13;11.60;;;;;;;15.86;78.04;100170.84;5034135;28;20029;-45
2023/10/24 07:41:26;;;;;;;23.33;11.60;;;;;;;15.79;78.12;100160.47;5029650;28;20034;-43
2023/10/24 07:43:51;;;;;;;20.52;11.63;;;;;;;15.43;79.56;100172.44;5030623;28;20034;-44
2023/10/24 07:46:17;;;;;;;20.17;11.52;;;;;;;15.67;78.90;100165.94;5030203;28;20033;-43
2023/10/24 07:48:43;;;;;;;20.95;11.40;;;;;;;15.75;78.66;100171.03;5032028;28;20029;-44
2023/10/24 07:51:10;;;;;;;19.75;11.27;;;;;;;15.55;78.84;100165.31;5033612;28;20042;-46
2023/10/24 07:53:36;;;;;;;18.88;11.10;;;;;;;15.89;77.19;100174.28;5033199;28;20040;-47
2023/10/24 07:56:05;;;;;;;22.38;11.85;;;;;;;15.75;77.08;100176.28;5032700;28;20033;-43
2023/10/24 07:58:30;;;;;;;19.85;11.07;;;;;;;15.91;77.12;100172.50;5031752;28;20088;-44
2023/10/24 08:00:56;;;;;;;17.48;10.52;;;;;;;15.76;77.77;100176.25;5032198;28;20037;-44
2023/10/24 08:03:21;;;;;;;16.70;10.75;;;;;;;15.53;78.17;100167.06;5032387;28;20045;-44
2023/10/24 08:05:46;;;;;;;16.92;10.43;;;;;;;15.75;77.61;100177.16;5032152;28;20033;-49
2023/10/24 08:08:12;;;;;;;21.45;11.52;;;;;;;15.89;76.89;100168.16;5032287;28;20030;-46
2023/10/24 08:10:39;;;;;;;18.10;11.18;;;;;;;15.85;77.36;100166.50;5031737;28;20124;-45
2023/10/24 08:13:04;;;;;;;18.35;11.05;;;;;;;15.73;77.45;100167.59;5030360;28;20056;-44
2023/10/24 08:15:30;;;;;;;19.02;11.02;;;;;;;15.84;77.08;100168.25;5031337;28;20542;-50
2023/10/24 08:17:55;;;;;;;16.63;10.57;;;;;;;16.00;77.04;100155.66;5032116;28;20045;-46
2023/10/24 08:20:21;;;;;;;17.15;10.80;;;;;;;15.99;77.08;100156.53;5032128;28;20047;-44
2023/10/24 08:22:46;;;;;;;16.67;10.35;;;;;;;15.91;76.90;100156.72;5031781;28;20496;-46
2023/10/24 08:25:12;;;;;;;15.95;10.40;;;;;;;16.22;76.17;100159.59;5032007;28;20057;-43
2023/10/24 08:27:38;;;;;;;15.27;10.27;;;;;;;16.33;75.17;100177.78;5031250;28;20038;-45
2023/10/24 08:30:04;;;;;;;15.23;10.38;;;;;;;16.30;74.71;100173.44;5031666;28;20143;-43
2023/10/24 08:32:30;;;;;;;14.13;9.75;;;;;;;16.42;74.39;100170.53;5030794;28;20041;-44
2023/10/24 08:34:55;;;;;;;15.43;9.95;;;;;;;16.17;74.47;100167.56;5031450;28;20073;-43
2023/10/24 08:37:21;;;;;;;14.38;10.00;;;;;;;16.10;75.21;100160.69;5031647;28;20033;-48
2023/10/24 08:39:46;;;;;;;15.65;10.02;;;;;;;16.28;74.65;100156.84;5031411;28;20041;-46
2023/10/24 08:42:13;;;;;;;13.75;10.00;;;;;;;16.11;75.06;100159.78;5031378;28;20083;-44
2023/10/24 08:44:41;;;;;;;16.10;10.10;;;;;;;16.30;75.09;100165.53;5030989;28;20483;-45
2023/10/24 08:47:08;;;;;;;15.90;10.55;;;;;;;16.18;74.31;100166.66;5031486;28;20084;-46
2023/10/24 08:49:36;;;;;;;13.90;10.02;;;;;;;16.44;74.29;100160.84;5031058;28;20561;-46
2023/10/24 08:52:02;;;;;;;15.73;10.35;;;;;;;16.56;73.76;100165.84;5031116;28;20044;-47
2023/10/24 08:54:27;;;;;;;14.50;10.02;;;;;;;16.45;73.99;100164.34;5030799;28;20045;-43
2023/10/24 08:56:53;;;;;;;13.68;9.98;;;;;;;16.60;73.23;100178.06;5031178;28;20049;-46
2023/10/24 08:59:20;;;;;;;12.75;9.57;;;;;;;16.79;72.83;100186.41;5030947;28;20515;-44
2023/10/24 09:01:48;;;;;;;11.98;9.27;;;;;;;16.85;72.31;100188.91;5030504;28;20091;-48
2023/10/24 09:04:13;;;;;;;13.82;9.88;;;;;;;16.31;72.75;100184.81;5029754;28;20034;-45
2023/10/24 09:06:39;;;;;;;11.25;8.85;;;;;;;16.36;73.05;100185.59;5030837;28;20083;-47
2023/10/24 09:09:04;;;;;;;12.32;8.77;;;;;;;16.64;72.39;100186.78;5029832;28;20088;-46
2023/10/24 09:11:55;;;;;;;10.68;8.18;;;;;;;16.60;72.45;100179.81;5030244;28;20041;-46
2023/10/24 09:14:22;;;;;;;13.25;8.75;;;;;;;16.60;72.44;100183.31;5030889;28;20515;-47
2023/10/24 09:17:01;;;;;;;12.60;8.93;;;;;;;16.85;71.71;100190.66;5030594;28;20032;-46
2023/10/24 09:19:27;;;;;;;13.13;8.35;;;;;;;16.70;71.91;100188.41;5030667;28;20124;-45
2023/10/24 09:21:53;;;;;;;14.63;8.70;;;;;;;16.95;71.30;100177.28;5030808;28;20037;-45
2023/10/24 09:24:19;;;;;;;12.27;8.70;;;;;;;16.97;71.19;100179.84;5030619;28;20519;-43
2023/10/24 09:26:54;;;;;;;14.27;8.50;;;;;;;16.91;71.09;100180.00;5030024;28;20034;-47
2023/10/24 09:29:20;;;;;;;12.68;7.95;;;;;;;17.13;70.02;100198.81;5030941;28;20403;-47
2023/10/24 09:31:49;;;;;;;11.02;7.72;;;;;;;16.67;70.62;100194.59;5030159;28;20491;-47
2023/10/24 09:34:18;;;;;;;11.57;8.32;;;;;;;16.91;70.79;100191.41;5030906;28;20491;-44
2023/10/24 09:36:45;;;;;;;12.00;8.00;;;;;;;16.83;71.45;100197.75;5030407;28;20029;-45
2023/10/24 09:39:11;;;;;;;11.07;7.65;;;;;;;16.85;71.18;100193.31;5030539;28;20033;-43
2023/10/24 09:41:49;;;;;;;13.95;7.47;;;;;;;16.70;71.65;100204.19;5029995;28;20091;-47
2023/10/24 09:44:16;;;;;;;10.90;7.45;;;;;;;16.91;70.79;100199.28;5030410;28;20403;-43
2023/10/24 09:46:43;;;;;;;12.90;7.95;;;;;;;16.74;70.79;100200.59;5030133;28;20087;-43
2023/10/24 09:49:11;;;;;;;13.70;7.75;;;;;;;16.42;72.64;100194.22;5030660;28;20041;-43
2023/10/24 09:51:38;;;;;;;15.88;8.80;;;;;;;16.52;72.80;100190.50;5029874;28;20041;-44
2023/10/24 09:54:05;;;;;;;12.10;8.93;;;;;;;16.60;73.06;100187.72;5030229;28;20034;-45
2023/10/24 09:56:31;;;;;;;11.70;8.15;;;;;;;16.79;72.38;100188.19;5029731;28;20112;-48
2023/10/24 09:58:57;;;;;;;13.02;7.72;;;;;;;16.80;72.29;100196.03;5030224;28;20033;-47
2023/10/24 10:01:26;;;;;;;12.40;7.70;;;;;;;16.70;72.78;100194.53;5029809;28;20415;-49
2023/10/24 10:03:55;;;;;;;11.35;7.57;;;;;;;16.23;73.98;100196.34;5030142;28;20025;-44
2023/10/24 10:06:21;;;;;;;13.15;7.82;;;;;;;16.60;72.53;100192.97;5029925;28;20029;-46
2023/10/24 10:08:49;;;;;;;10.00;6.90;;;;;;;16.78;71.75;100191.69;5030114;28;20427;-49
2023/10/24 10:11:15;;;;;;;15.15;6.97;;;;;;;16.53;71.94;100186.09;5029730;28;20033;-43
2023/10/24 10:13:52;;;;;;;10.27;7.20;;;;;;;16.81;71.38;100194.28;5028982;28;20454;-48
2023/10/24 10:16:20;;;;;;;10.25;7.10;;;;;;;16.61;72.04;100192.97;5028803;28;20484;-45
2023/10/24 10:18:55;;;;;;;10.65;7.22;;;;;;;16.86;71.62;100184.50;5031306;28;20033;-45
2023/10/24 10:21:37;;;;;;;11.57;7.30;;;;;;;16.60;72.61;100185.09;5031530;28;20397;-47
2023/10/24 10:24:34;;;;;;;10.00;7.82;;;;;;;16.35;73.58;100187.34;5029576;28;20037;-44
2023/10/24 10:27:11;;;;;;;11.90;8.07;;;;;;;16.32;73.56;100189.19;5030020;28;20088;-49
2023/10/24 10:30:12;;;;;;;12.70;8.18;;;;;;;16.15;73.55;100193.03;5029359;28;20084;-46
2023/10/24 10:33:09;;;;;;;11.35;8.63;;;;;;;15.96;74.13;100181.16;5029485;28;20068;-46
2023/10/24 10:36:01;;;;;;;10.70;7.13;;;;;;;16.37;72.95;100188.19;5029171;28;20079;-48
2023/10/24 10:38:47;;;;;;;11.43;7.57;;;;;;;16.24;73.05;100187.56;5029375;28;20050;-46
2023/10/24 10:41:22;;;;;;;9.93;7.32;;;;;;;16.69;72.15;100184.03;5028300;28;20467;-46
2023/10/24 10:43:48;;;;;;;10.70;7.72;;;;;;;16.75;71.74;100182.13;5029511;28;20038;-45
2023/10/24 10:46:23;;;;;;;10.77;7.38;;;;;;;16.27;72.74;100186.66;5029586;28;20030;-46
2023/10/24 10:48:50;;;;;;;10.50;7.30;;;;;;;16.48;72.09;100180.06;5029354;28;20033;-48
2023/10/24 10:51:23;;;;;;;10.45;7.47;;;;;;;16.66;71.82;100186.72;5029666;28;20036;-44
2023/10/24 10:54:04;;;;;;;9.75;7.15;;;;;;;16.90;70.80;100187.03;5029108;28;20144;-42
2023/10/24 10:56:32;;;;;;;10.73;7.03;;;;;;;16.48;72.20;100180.94;5029068;28;20096;-45
2023/10/24 10:59:04;;;;;;;9.10;6.30;;;;;;;16.80;71.28;100193.41;5029856;28;20049;-45
2023/10/24 11:01:33;;;;;;;9.48;6.00;;;;;;;16.73;70.54;100178.66;5029017;28;20691;-47
2023/10/24 11:03:59;;;;;;;7.60;6.07;;;;;;;16.83;70.74;100179.31;5029362;28;20077;-48
2023/10/24 11:06:27;;;;;;;7.45;5.47;;;;;;;16.40;70.91;100188.13;5029148;28;20542;-45
2023/10/24 11:09:12;;;;;;;6.70;5.35;;;;;;;16.50;70.42;100183.53;5029898;28;20087;-44
2023/10/24 11:11:38;;;;;;;8.75;5.25;;;;;;;15.98;71.97;100181.97;5028777;28;20559;-44
2023/10/24 11:14:16;;;;;;;8.95;5.75;;;;;;;16.10;72.59;100179.09;5029318;28;20148;-44